sensor_id;sensor_type;location;lat;lon;timestamp;pressure;altitude;pressure_sealevel;temperature;humidity
49759;BME280;70329;45.524;10.194;2023-08-20T00:00:35;100446.63;;;27.60;64.01
49759;BME280;70329;45.524;10.194;2023-08-20T00:03:10;100447.41;;;27.57;63.85
49759;BME280;70329;45.524;10.194;2023-08-20T00:05:37;100449.41;;;27.56;63.76
49759;BME280;70329;45.524;10.194;2023-08-20T00:08:02;100455.41;;;27.55;63.73
49759;BME280;70329;45.524;10.194;2023-08-20T00:10:28;100445.75;;;27.52;63.67
49759;BME280;70329;45.524;10.194;2023-08-20T00:12:53;100451.38;;;27.56;63.19
49759;BME280;70329;45.524;10.194;2023-08-20T00:15:19;100452.06;;;27.46;63.81
49759;BME280;70329;45.524;10.194;2023-08-20T00:17:45;100446.50;;;27.49;63.68
49759;BME280;70329;45.524;10.194;2023-08-20T00:20:11;100446.88;;;27.48;63.58
49759;BME280;70329;45.524;10.194;2023-08-20T00:22:40;100452.06;;;27.46;64.28
49759;BME280;70329;45.524;10.194;2023-08-20T00:25:07;100450.84;;;27.43;64.44
49759;BME280;70329;45.524;10.194;2023-08-20T00:27:33;100457.28;;;27.44;64.10
49759;BME280;70329;45.524;10.194;2023-08-20T00:29:59;100454.03;;;27.42;63.95
49759;BME280;70329;45.524;10.194;2023-08-20T00:32:24;100455.53;;;27.36;64.18
49759;BME280;70329;45.524;10.194;2023-08-20T00:34:49;100461.06;;;27.29;64.77
49759;BME280;70329;45.524;10.194;2023-08-20T00:37:15;100459.81;;;27.26;64.93
49759;BME280;70329;45.524;10.194;2023-08-20T00:39:40;100460.97;;;27.22;65.22
49759;BME280;70329;45.524;10.194;2023-08-20T00:42:06;100462.53;;;27.19;65.34
49759;BME280;70329;45.524;10.194;2023-08-20T00:44:33;100462.84;;;27.14;65.23
49759;BME280;70329;45.524;10.194;2023-08-20T00:46:59;100458.78;;;27.11;64.98
49759;BME280;70329;45.524;10.194;2023-08-20T00:49:25;100454.00;;;27.12;64.83
49759;BME280;70329;45.524;10.194;2023-08-20T00:51:51;100457.19;;;27.10;64.96
49759;BME280;70329;45.524;10.194;2023-08-20T00:54:17;100459.56;;;27.08;64.94
49759;BME280;70329;45.524;10.194;2023-08-20T00:56:42;100453.41;;;26.99;65.58
49759;BME280;70329;45.524;10.194;2023-08-20T00:59:08;100453.03;;;27.01;65.49
49759;BME280;70329;45.524;10.194;2023-08-20T01:01:33;100451.38;;;26.96;65.78
49759;BME280;70329;45.524;10.194;2023-08-20T01:03:59;100456.22;;;26.99;65.08
49759;BME280;70329;45.524;10.194;2023-08-20T01:11:57;100458.34;;;26.80;65.33
49759;BME280;70329;45.524;10.194;2023-08-20T01:14:24;100455.28;;;26.69;65.81
49759;BME280;70329;45.524;10.194;2023-08-20T01:16:49;100459.81;;;26.74;65.34
49759;BME280;70329;45.524;10.194;2023-08-20T01:19:17;100462.97;;;26.72;65.59
49759;BME280;70329;45.524;10.194;2023-08-20T01:30:20;100472.41;;;26.60;66.39
49759;BME280;70329;45.524;10.194;2023-08-20T01:32:49;100469.19;;;26.58;66.71
49759;BME280;70329;45.524;10.194;2023-08-20T01:35:16;100471.63;;;26.60;66.77
49759;BME280;70329;45.524;10.194;2023-08-20T01:37:42;100471.56;;;26.56;66.97
49759;BME280;70329;45.524;10.194;2023-08-20T01:40:08;100471.63;;;26.60;66.80
49759;BME280;70329;45.524;10.194;2023-08-20T01:42:36;100471.50;;;26.53;67.07
49759;BME280;70329;45.524;10.194;2023-08-20T01:45:01;100469.25;;;26.62;66.75
49759;BME280;70329;45.524;10.194;2023-08-20T01:47:26;100463.06;;;26.53;67.24
49759;BME280;70329;45.524;10.194;2023-08-20T01:49:52;100469.88;;;26.52;67.23
49759;BME280;70329;45.524;10.194;2023-08-20T01:52:17;100463.94;;;26.57;66.86
49759;BME280;70329;45.524;10.194;2023-08-20T01:54:42;100457.84;;;26.51;67.19
49759;BME280;70329;45.524;10.194;2023-08-20T01:57:08;100463.78;;;26.46;67.15
49759;BME280;70329;45.524;10.194;2023-08-20T01:59:33;100464.88;;;26.42;67.24
49759;BME280;70329;45.524;10.194;2023-08-20T02:01:58;100472.06;;;26.39;67.17
49759;BME280;70329;45.524;10.194;2023-08-20T02:04:24;100464.44;;;26.40;66.77
49759;BME280;70329;45.524;10.194;2023-08-20T02:06:49;100463.78;;;26.46;66.81
49759;BME280;70329;45.524;10.194;2023-08-20T02:09:14;100468.13;;;26.44;66.37
49759;BME280;70329;45.524;10.194;2023-08-20T02:11:40;100470.44;;;26.38;66.69
49759;BME280;70329;45.524;10.194;2023-08-20T02:14:05;100459.69;;;26.44;66.18
49759;BME280;70329;45.524;10.194;2023-08-20T02:16:30;100459.25;;;26.42;66.15
49759;BME280;70329;45.524;10.194;2023-08-20T02:18:56;100456.88;;;26.44;66.35
49759;BME280;70329;45.524;10.194;2023-08-20T02:21:21;100464.56;;;26.47;66.07
49759;BME280;70329;45.524;10.194;2023-08-20T02:23:46;100468.94;;;26.44;66.40
49759;BME280;70329;45.524;10.194;2023-08-20T02:26:12;100472.94;;;26.43;66.46
49759;BME280;70329;45.524;10.194;2023-08-20T02:28:37;100471.25;;;26.39;66.58
49759;BME280;70329;45.524;10.194;2023-08-20T02:31:05;100471.56;;;26.34;66.68
49759;BME280;70329;45.524;10.194;2023-08-20T02:33:31;100472.06;;;26.39;66.54
49759;BME280;70329;45.524;10.194;2023-08-20T02:36:01;100466.00;;;26.37;66.86
49759;BME280;70329;45.524;10.194;2023-08-20T02:38:27;100467.06;;;26.29;67.24
49759;BME280;70329;45.524;10.194;2023-08-20T02:40:52;100471.94;;;26.32;67.30
49759;BME280;70329;45.524;10.194;2023-08-20T02:43:17;100470.25;;;26.28;67.43
49759;BME280;70329;45.524;10.194;2023-08-20T02:45:43;100471.88;;;26.29;67.65
49759;BME280;70329;45.524;10.194;2023-08-20T02:48:09;100464.81;;;26.16;68.38
49759;BME280;70329;45.524;10.194;2023-08-20T02:50:35;100470.56;;;26.23;68.04
49759;BME280;70329;45.524;10.194;2023-08-20T02:53:01;100472.94;;;26.21;68.13
49759;BME280;70329;45.524;10.194;2023-08-20T02:55:26;100477.31;;;26.18;68.14
49759;BME280;70329;45.524;10.194;2023-08-20T02:57:52;100478.97;;;26.23;67.90
49759;BME280;70329;45.524;10.194;2023-08-20T03:00:17;100479.38;;;26.21;68.09
49759;BME280;70329;45.524;10.194;2023-08-20T03:02:42;100475.44;;;26.26;67.83
49759;BME280;70329;45.524;10.194;2023-08-20T03:05:09;100475.94;;;26.31;67.58
49759;BME280;70329;45.524;10.194;2023-08-20T03:07:34;100472.56;;;26.22;67.88
49759;BME280;70329;45.524;10.194;2023-08-20T03:10:00;100485.25;;;26.16;68.18
49759;BME280;70329;45.524;10.194;2023-08-20T03:12:25;100480.84;;;26.15;68.17
49759;BME280;70329;45.524;10.194;2023-08-20T03:14:50;100487.84;;;26.05;68.63
49759;BME280;70329;45.524;10.194;2023-08-20T03:17:16;100484.22;;;26.05;68.66
49759;BME280;70329;45.524;10.194;2023-08-20T03:19:57;100478.16;;;26.03;68.65
49759;BME280;70329;45.524;10.194;2023-08-20T03:22:23;100477.31;;;25.99;69.04
49759;BME280;70329;45.524;10.194;2023-08-20T03:24:49;100479.72;;;26.00;68.89
49759;BME280;70329;45.524;10.194;2023-08-20T03:27:15;100483.44;;;26.04;68.70
49759;BME280;70329;45.524;10.194;2023-08-20T03:29:41;100482.47;;;25.97;68.91
49759;BME280;70329;45.524;10.194;2023-08-20T03:32:06;100474.78;;;25.94;69.18
49759;BME280;70329;45.524;10.194;2023-08-20T03:34:32;100474.34;;;25.92;69.35
49759;BME280;70329;45.524;10.194;2023-08-20T03:36:57;100477.16;;;25.92;69.39
49759;BME280;70329;45.524;10.194;2023-08-20T03:39:22;100481.09;;;25.87;69.46
49759;BME280;70329;45.524;10.194;2023-08-20T03:41:49;100480.19;;;25.83;69.57
49759;BME280;70329;45.524;10.194;2023-08-20T03:44:14;100482.47;;;25.78;69.94
49759;BME280;70329;45.524;10.194;2023-08-20T03:46:40;100477.25;;;25.76;69.87
49759;BME280;70329;45.524;10.194;2023-08-20T03:49:05;100489.22;;;25.73;69.87
49759;BME280;70329;45.524;10.194;2023-08-20T03:51:30;100487.44;;;25.65;70.77
49759;BME280;70329;45.524;10.194;2023-08-20T03:53:56;100486.72;;;25.68;70.29
49759;BME280;70329;45.524;10.194;2023-08-20T03:56:21;100483.38;;;25.63;70.64
49759;BME280;70329;45.524;10.194;2023-08-20T03:58:46;100484.19;;;25.63;70.58
49759;BME280;70329;45.524;10.194;2023-08-20T04:01:11;100485.81;;;25.64;70.60
49759;BME280;70329;45.524;10.194;2023-08-20T04:03:37;100481.09;;;25.68;70.42
49759;BME280;70329;45.524;10.194;2023-08-20T04:06:02;100483.59;;;25.73;70.11
49759;BME280;70329;45.524;10.194;2023-08-20T04:08:29;100486.84;;;25.56;70.93
49759;BME280;70329;45.524;10.194;2023-08-20T04:10:54;100488.00;;;25.55;71.11
49759;BME280;70329;45.524;10.194;2023-08-20T04:13:20;100485.69;;;25.57;71.11
49759;BME280;70329;45.524;10.194;2023-08-20T04:15:45;100491.81;;;25.63;70.78
49759;BME280;70329;45.524;10.194;2023-08-20T04:18:10;100490.97;;;25.62;71.10
49759;BME280;70329;45.524;10.194;2023-08-20T04:20:36;100481.66;;;25.58;70.99
49759;BME280;70329;45.524;10.194;2023-08-20T04:23:01;100488.41;;;25.54;71.37
49759;BME280;70329;45.524;10.194;2023-08-20T04:25:27;100481.53;;;25.51;71.78
49759;BME280;70329;45.524;10.194;2023-08-20T04:27:52;100486.84;;;25.56;71.29
49759;BME280;70329;45.524;10.194;2023-08-20T04:30:17;100483.97;;;25.53;72.00
49759;BME280;70329;45.524;10.194;2023-08-20T04:32:43;100485.59;;;25.54;71.68
49759;BME280;70329;45.524;10.194;2023-08-20T04:35:08;100483.75;;;25.61;71.37
49759;BME280;70329;45.524;10.194;2023-08-20T04:37:33;100485.69;;;25.57;71.59
49759;BME280;70329;45.524;10.194;2023-08-20T04:39:59;100493.56;;;25.52;72.08
49759;BME280;70329;45.524;10.194;2023-08-20T04:42:24;100487.28;;;25.58;71.42
49759;BME280;70329;45.524;10.194;2023-08-20T04:44:49;100493.06;;;25.65;71.07
49759;BME280;70329;45.524;10.194;2023-08-20T04:47:14;100496.13;;;25.60;71.48
49759;BME280;70329;45.524;10.194;2023-08-20T04:49:40;100496.22;;;25.64;71.43
49759;BME280;70329;45.524;10.194;2023-08-20T04:52:05;100496.81;;;25.54;71.72
49759;BME280;70329;45.524;10.194;2023-08-20T04:54:31;100499.69;;;25.57;71.72
49759;BME280;70329;45.524;10.194;2023-08-20T04:56:56;100505.00;;;25.62;71.62
49759;BME280;70329;45.524;10.194;2023-08-20T04:59:21;100501.47;;;25.65;71.32
49759;BME280;70329;45.524;10.194;2023-08-20T05:01:47;100506.91;;;25.77;70.41
49759;BME280;70329;45.524;10.194;2023-08-20T05:04:12;100511.44;;;25.82;70.35
49759;BME280;70329;45.524;10.194;2023-08-20T05:06:38;100505.59;;;25.90;70.10
49759;BME280;70329;45.524;10.194;2023-08-20T05:09:03;100510.91;;;25.95;69.76
49759;BME280;70329;45.524;10.194;2023-08-20T05:11:28;100507.41;;;26.02;69.44
49759;BME280;70329;45.524;10.194;2023-08-20T05:13:56;100510.19;;;26.18;68.61
49759;BME280;70329;45.524;10.194;2023-08-20T05:16:22;100512.66;;;26.23;68.58
49759;BME280;70329;45.524;10.194;2023-08-20T05:18:47;100513.25;;;26.32;68.12
49759;BME280;70329;45.524;10.194;2023-08-20T05:21:12;100515.56;;;26.49;67.46
49759;BME280;70329;45.524;10.194;2023-08-20T05:23:39;100513.28;;;26.54;67.04
49759;BME280;70329;45.524;10.194;2023-08-20T05:26:06;100517.63;;;26.52;67.30
49759;BME280;70329;45.524;10.194;2023-08-20T05:28:32;100514.94;;;26.59;67.20
49759;BME280;70329;45.524;10.194;2023-08-20T05:30:58;100517.06;;;26.66;66.99
49759;BME280;70329;45.524;10.194;2023-08-20T05:33:24;100511.50;;;26.69;66.91
49759;BME280;70329;45.524;10.194;2023-08-20T05:35:49;100526.03;;;26.75;67.26
49759;BME280;70329;45.524;10.194;2023-08-20T05:38:15;100515.25;;;26.77;67.13
49759;BME280;70329;45.524;10.194;2023-08-20T05:40:41;100516.38;;;26.72;67.36
49759;BME280;70329;45.524;10.194;2023-08-20T05:43:06;100519.25;;;26.76;66.87
49759;BME280;70329;45.524;10.194;2023-08-20T05:45:31;100525.44;;;26.85;66.97
49759;BME280;70329;45.524;10.194;2023-08-20T05:47:57;100521.06;;;26.87;66.63
49759;BME280;70329;45.524;10.194;2023-08-20T05:50:22;100528.34;;;26.88;66.58
49759;BME280;70329;45.524;10.194;2023-08-20T05:52:48;100518.59;;;26.82;67.04
49759;BME280;70329;45.524;10.194;2023-08-20T05:55:14;100522.75;;;26.92;66.20
49759;BME280;70329;45.524;10.194;2023-08-20T05:57:39;100529.69;;;26.98;65.72
49759;BME280;70329;45.524;10.194;2023-08-20T06:00:06;100529.84;;;26.82;66.23
49759;BME280;70329;45.524;10.194;2023-08-20T06:02:31;100531.16;;;26.88;66.30
49759;BME280;70329;45.524;10.194;2023-08-20T06:04:57;100527.88;;;26.86;66.46
49759;BME280;70329;45.524;10.194;2023-08-20T06:07:22;100531.63;;;26.94;66.34
49759;BME280;70329;45.524;10.194;2023-08-20T06:09:47;100531.88;;;27.08;65.56
49759;BME280;70329;45.524;10.194;2023-08-20T06:12:15;100536.31;;;27.39;64.37
49759;BME280;70329;45.524;10.194;2023-08-20T06:14:41;100538.03;;;27.43;64.29
49759;BME280;70329;45.524;10.194;2023-08-20T06:17:06;100541.47;;;27.33;64.64
49759;BME280;70329;45.524;10.194;2023-08-20T06:19:32;100533.81;;;27.30;64.81
49759;BME280;70329;45.524;10.194;2023-08-20T06:21:57;100539.91;;;27.36;64.54
49759;BME280;70329;45.524;10.194;2023-08-20T06:24:23;100543.28;;;27.45;64.30
49759;BME280;70329;45.524;10.194;2023-08-20T06:26:48;100541.00;;;27.54;63.85
49759;BME280;70329;45.524;10.194;2023-08-20T06:29:14;100548.09;;;28.37;61.58
49759;BME280;70329;45.524;10.194;2023-08-20T06:31:39;100540.34;;;30.98;52.40
49759;BME280;70329;45.524;10.194;2023-08-20T06:34:05;100547.41;;;31.98;48.42
49759;BME280;70329;45.524;10.194;2023-08-20T06:36:30;100548.00;;;31.19;50.29
49759;BME280;70329;45.524;10.194;2023-08-20T06:38:56;100549.41;;;30.10;53.84
49759;BME280;70329;45.524;10.194;2023-08-20T06:41:22;100550.78;;;29.58;55.98
49759;BME280;70329;45.524;10.194;2023-08-20T06:43:49;100558.19;;;29.22;57.17
49759;BME280;70329;45.524;10.194;2023-08-20T06:46:14;100548.00;;;29.11;58.31
49759;BME280;70329;45.524;10.194;2023-08-20T06:48:41;100541.22;;;29.19;58.04
49759;BME280;70329;45.524;10.194;2023-08-20T06:51:14;100548.81;;;30.94;52.17
49759;BME280;70329;45.524;10.194;2023-08-20T06:53:43;100541.44;;;33.91;44.54
49759;BME280;70329;45.524;10.194;2023-08-20T06:56:08;100548.03;;;36.27;38.88
49759;BME280;70329;45.524;10.194;2023-08-20T06:58:35;100544.22;;;38.20;35.11
49759;BME280;70329;45.524;10.194;2023-08-20T07:01:00;100542.22;;;39.78;31.78
49759;BME280;70329;45.524;10.194;2023-08-20T07:03:42;100546.19;;;40.85;30.33
49759;BME280;70329;45.524;10.194;2023-08-20T07:06:08;100540.78;;;39.95;31.23
49759;BME280;70329;45.524;10.194;2023-08-20T07:08:39;100551.22;;;40.63;29.79
49759;BME280;70329;45.524;10.194;2023-08-20T07:11:06;100550.09;;;41.00;29.47
49759;BME280;70329;45.524;10.194;2023-08-20T07:13:31;100536.50;;;38.96;31.94
49759;BME280;70329;45.524;10.194;2023-08-20T07:15:57;100544.69;;;36.12;36.57
49759;BME280;70329;45.524;10.194;2023-08-20T07:18:22;100550.38;;;34.23;41.25
49759;BME280;70329;45.524;10.194;2023-08-20T07:20:47;100562.69;;;32.94;43.86
49759;BME280;70329;45.524;10.194;2023-08-20T07:23:13;100562.38;;;32.12;46.74
49759;BME280;70329;45.524;10.194;2023-08-20T07:25:40;100559.28;;;31.68;49.01
49759;BME280;70329;45.524;10.194;2023-08-20T07:28:09;100558.50;;;31.50;49.29
49759;BME280;70329;45.524;10.194;2023-08-20T07:30:35;100555.69;;;31.25;49.93
49759;BME280;70329;45.524;10.194;2023-08-20T07:33:01;100560.16;;;31.12;50.53
49759;BME280;70329;45.524;10.194;2023-08-20T07:35:26;100560.13;;;31.08;50.81
49759;BME280;70329;45.524;10.194;2023-08-20T07:37:52;100555.69;;;30.97;51.59
49759;BME280;70329;45.524;10.194;2023-08-20T07:40:18;100553.66;;;31.22;50.32
49759;BME280;70329;45.524;10.194;2023-08-20T07:42:43;100556.06;;;31.27;49.89
49759;BME280;70329;45.524;10.194;2023-08-20T07:45:09;100556.50;;;31.26;49.91
49759;BME280;70329;45.524;10.194;2023-08-20T07:47:38;100555.69;;;31.32;50.15
49759;BME280;70329;45.524;10.194;2023-08-20T07:50:04;100553.25;;;31.34;49.90
49759;BME280;70329;45.524;10.194;2023-08-20T07:52:31;100555.25;;;31.44;49.94
49759;BME280;70329;45.524;10.194;2023-08-20T07:54:56;100549.19;;;31.49;49.68
49759;BME280;70329;45.524;10.194;2023-08-20T07:57:22;100547.56;;;31.55;49.93
49759;BME280;70329;45.524;10.194;2023-08-20T07:59:49;100554.38;;;31.83;50.81
49759;BME280;70329;45.524;10.194;2023-08-20T08:02:14;100551.88;;;32.02;51.43
49759;BME280;70329;45.524;10.194;2023-08-20T08:04:39;100553.47;;;32.10;51.54
49759;BME280;70329;45.524;10.194;2023-08-20T08:07:05;100551.78;;;32.20;49.56
49759;BME280;70329;45.524;10.194;2023-08-20T08:09:31;100557.16;;;32.04;49.28
49759;BME280;70329;45.524;10.194;2023-08-20T08:11:58;100555.88;;;32.15;49.70
49759;BME280;70329;45.524;10.194;2023-08-20T08:14:24;100563.94;;;32.17;48.98
49759;BME280;70329;45.524;10.194;2023-08-20T08:16:50;100558.25;;;32.24;48.79
49759;BME280;70329;45.524;10.194;2023-08-20T08:19:16;100562.72;;;32.21;48.75
49759;BME280;70329;45.524;10.194;2023-08-20T08:21:43;100566.34;;;32.25;49.08
49759;BME280;70329;45.524;10.194;2023-08-20T08:24:09;100557.00;;;32.36;51.64
49759;BME280;70329;45.524;10.194;2023-08-20T08:26:35;100559.31;;;32.51;48.87
49759;BME280;70329;45.524;10.194;2023-08-20T08:29:04;100560.47;;;32.64;47.56
49759;BME280;70329;45.524;10.194;2023-08-20T08:31:30;100561.25;;;32.68;46.57
49759;BME280;70329;45.524;10.194;2023-08-20T08:33:55;100562.56;;;32.57;45.96
49759;BME280;70329;45.524;10.194;2023-08-20T08:36:21;100566.06;;;32.75;46.13
49759;BME280;70329;45.524;10.194;2023-08-20T08:38:46;100554.78;;;32.64;46.26
49759;BME280;70329;45.524;10.194;2023-08-20T08:41:13;100556.50;;;32.44;46.19
49759;BME280;70329;45.524;10.194;2023-08-20T08:43:39;100549.53;;;32.66;45.96
49759;BME280;70329;45.524;10.194;2023-08-20T08:46:14;100551.03;;;32.81;46.49
49759;BME280;70329;45.524;10.194;2023-08-20T08:48:40;100543.22;;;32.93;45.35
49759;BME280;70329;45.524;10.194;2023-08-20T08:51:06;100552.47;;;33.00;46.68
49759;BME280;70329;45.524;10.194;2023-08-20T08:53:32;100543.13;;;33.07;46.42
49759;BME280;70329;45.524;10.194;2023-08-20T08:55:58;100551.75;;;32.93;45.13
49759;BME280;70329;45.524;10.194;2023-08-20T08:58:24;100547.97;;;32.51;48.18
49759;BME280;70329;45.524;10.194;2023-08-20T09:00:50;100553.09;;;32.01;48.42
49759;BME280;70329;45.524;10.194;2023-08-20T09:03:15;100547.59;;;32.49;46.64
49759;BME280;70329;45.524;10.194;2023-08-20T09:05:47;100544.22;;;32.72;46.83
49759;BME280;70329;45.524;10.194;2023-08-20T09:08:26;100547.25;;;32.95;48.58
49759;BME280;70329;45.524;10.194;2023-08-20T09:10:53;100537.94;;;32.95;47.24
49759;BME280;70329;45.524;10.194;2023-08-20T09:13:25;100541.50;;;33.09;47.36
49759;BME280;70329;45.524;10.194;2023-08-20T09:15:52;100541.81;;;33.18;48.16
49759;BME280;70329;45.524;10.194;2023-08-20T09:18:18;100538.66;;;33.09;46.82
49759;BME280;70329;45.524;10.194;2023-08-20T09:20:43;100532.63;;;33.00;45.57
49759;BME280;70329;45.524;10.194;2023-08-20T09:23:12;100537.56;;;32.89;46.64
49759;BME280;70329;45.524;10.194;2023-08-20T09:25:38;100529.31;;;33.12;46.59
49759;BME280;70329;45.524;10.194;2023-08-20T09:28:04;100524.19;;;33.37;47.19
49759;BME280;70329;45.524;10.194;2023-08-20T09:30:29;100525.72;;;33.46;47.94
49759;BME280;70329;45.524;10.194;2023-08-20T09:33:06;100532.66;;;33.45;44.27
49759;BME280;70329;45.524;10.194;2023-08-20T09:35:32;100524.47;;;33.50;44.33
49759;BME280;70329;45.524;10.194;2023-08-20T09:38:01;100526.66;;;33.35;43.93
49759;BME280;70329;45.524;10.194;2023-08-20T09:40:28;100529.75;;;33.48;44.21
49759;BME280;70329;45.524;10.194;2023-08-20T09:42:55;100527.94;;;33.27;43.81
49759;BME280;70329;45.524;10.194;2023-08-20T09:45:21;100530.22;;;33.43;43.96
49759;BME280;70329;45.524;10.194;2023-08-20T09:47:49;100522.00;;;33.52;43.38
49759;BME280;70329;45.524;10.194;2023-08-20T09:50:17;100521.13;;;33.59;43.96
49759;BME280;70329;45.524;10.194;2023-08-20T09:52:55;100519.28;;;33.42;42.77
49759;BME280;70329;45.524;10.194;2023-08-20T09:55:22;100526.88;;;33.52;42.37
49759;BME280;70329;45.524;10.194;2023-08-20T09:57:53;100517.97;;;33.50;41.42
49759;BME280;70329;45.524;10.194;2023-08-20T10:00:19;100516.44;;;33.42;42.67
49759;BME280;70329;45.524;10.194;2023-08-20T10:02:46;100524.53;;;33.43;42.53
49759;BME280;70329;45.524;10.194;2023-08-20T10:05:12;100519.38;;;33.72;41.87
49759;BME280;70329;45.524;10.194;2023-08-20T10:07:39;100513.63;;;33.75;41.78
49759;BME280;70329;45.524;10.194;2023-08-20T10:10:07;100516.25;;;33.59;42.76
49759;BME280;70329;45.524;10.194;2023-08-20T10:12:34;100519.91;;;33.60;42.53
49759;BME280;70329;45.524;10.194;2023-08-20T10:15:01;100512.84;;;33.75;43.43
49759;BME280;70329;45.524;10.194;2023-08-20T10:17:29;100508.75;;;33.76;43.01
49759;BME280;70329;45.524;10.194;2023-08-20T10:19:57;100515.44;;;33.92;43.39
49759;BME280;70329;45.524;10.194;2023-08-20T10:22:32;100514.88;;;34.08;43.13
49759;BME280;70329;45.524;10.194;2023-08-20T10:24:57;100517.13;;;34.20;43.29
49759;BME280;70329;45.524;10.194;2023-08-20T10:27:34;100512.84;;;34.09;43.11
49759;BME280;70329;45.524;10.194;2023-08-20T10:29:59;100512.84;;;34.09;44.22
49759;BME280;70329;45.524;10.194;2023-08-20T10:35:13;100515.84;;;34.25;43.18
49759;BME280;70329;45.524;10.194;2023-08-20T10:44:08;100504.56;;;34.18;41.83
49759;BME280;70329;45.524;10.194;2023-08-20T10:46:13;100501.34;;;34.42;42.17
49759;BME280;70329;45.524;10.194;2023-08-20T10:48:40;100508.47;;;34.58;42.11
49759;BME280;70329;45.524;10.194;2023-08-20T10:51:07;100503.75;;;34.47;40.21
49759;BME280;70329;45.524;10.194;2023-08-20T10:53:33;100502.16;;;34.16;42.20
49759;BME280;70329;45.524;10.194;2023-08-20T10:56:12;100491.22;;;34.41;41.97
49759;BME280;70329;45.524;10.194;2023-08-20T10:58:42;100501.78;;;34.68;41.68
49759;BME280;70329;45.524;10.194;2023-08-20T11:01:21;100498.28;;;34.60;40.75
49759;BME280;70329;45.524;10.194;2023-08-20T11:03:51;100499.41;;;34.66;40.80
49759;BME280;70329;45.524;10.194;2023-08-20T11:06:17;100495.19;;;34.74;40.65
49759;BME280;70329;45.524;10.194;2023-08-20T11:08:44;100491.94;;;34.76;40.84
49759;BME280;70329;45.524;10.194;2023-08-20T11:11:10;100487.41;;;34.78;40.59
49759;BME280;70329;45.524;10.194;2023-08-20T11:13:36;100484.47;;;34.32;41.27
49759;BME280;70329;45.524;10.194;2023-08-20T11:16:02;100488.56;;;34.58;41.46
49759;BME280;70329;45.524;10.194;2023-08-20T11:18:28;100479.97;;;34.84;40.05
49759;BME280;70329;45.524;10.194;2023-08-20T11:20:54;100482.19;;;34.73;39.47
49759;BME280;70329;45.524;10.194;2023-08-20T11:23:21;100478.56;;;34.46;41.31
49759;BME280;70329;45.524;10.194;2023-08-20T11:25:47;100478.78;;;34.32;41.27
49759;BME280;70329;45.524;10.194;2023-08-20T11:28:12;100476.31;;;34.61;41.31
49759;BME280;70329;45.524;10.194;2023-08-20T11:30:38;100471.91;;;34.29;41.13
49759;BME280;70329;45.524;10.194;2023-08-20T11:33:04;100476.31;;;34.34;40.69
49759;BME280;70329;45.524;10.194;2023-08-20T11:35:31;100467.16;;;34.23;42.13
49759;BME280;70329;45.524;10.194;2023-08-20T11:37:56;100473.94;;;34.56;41.17
49759;BME280;70329;45.524;10.194;2023-08-20T11:40:23;100477.72;;;34.76;40.65
49759;BME280;70329;45.524;10.194;2023-08-20T11:42:48;100468.47;;;34.91;40.62
49759;BME280;70329;45.524;10.194;2023-08-20T11:45:14;100473.44;;;35.11;39.79
49759;BME280;70329;45.524;10.194;2023-08-20T11:47:40;100471.31;;;34.68;40.35
49759;BME280;70329;45.524;10.194;2023-08-20T11:50:07;100466.69;;;34.78;40.63
49759;BME280;70329;45.524;10.194;2023-08-20T11:52:33;100458.75;;;34.66;40.94
49759;BME280;70329;45.524;10.194;2023-08-20T11:54:59;100462.94;;;35.04;41.54
49759;BME280;70329;45.524;10.194;2023-08-20T11:57:29;100454.97;;;35.19;39.91
49759;BME280;70329;45.524;10.194;2023-08-20T11:59:55;100454.28;;;34.88;40.20
49759;BME280;70329;45.524;10.194;2023-08-20T12:02:26;100447.53;;;35.01;40.35
49759;BME280;70329;45.524;10.194;2023-08-20T12:04:55;100452.78;;;35.26;40.34
49759;BME280;70329;45.524;10.194;2023-08-20T12:07:24;100459.47;;;35.39;40.56
49759;BME280;70329;45.524;10.194;2023-08-20T12:09:50;100456.22;;;35.18;39.91
49759;BME280;70329;45.524;10.194;2023-08-20T12:12:19;100451.72;;;35.20;39.72
49759;BME280;70329;45.524;10.194;2023-08-20T12:14:44;100457.97;;;35.12;39.86
49759;BME280;70329;45.524;10.194;2023-08-20T12:17:10;100458.78;;;35.12;39.17
49759;BME280;70329;45.524;10.194;2023-08-20T12:19:35;100458.72;;;34.92;39.53
49759;BME280;70329;45.524;10.194;2023-08-20T12:22:00;100454.78;;;35.06;40.15
49759;BME280;70329;45.524;10.194;2023-08-20T12:24:26;100448.34;;;34.79;40.89
49759;BME280;70329;45.524;10.194;2023-08-20T12:26:51;100452.00;;;35.02;40.36
49759;BME280;70329;45.524;10.194;2023-08-20T12:29:16;100458.50;;;34.80;40.90
49759;BME280;70329;45.524;10.194;2023-08-20T12:31:42;100445.31;;;35.13;39.92
49759;BME280;70329;45.524;10.194;2023-08-20T12:34:08;100439.75;;;35.29;40.44
49759;BME280;70329;45.524;10.194;2023-08-20T12:36:34;100449.22;;;34.99;40.74
49759;BME280;70329;45.524;10.194;2023-08-20T12:39:00;100446.31;;;35.26;40.58
49759;BME280;70329;45.524;10.194;2023-08-20T12:41:25;100443.75;;;35.31;40.03
49759;BME280;70329;45.524;10.194;2023-08-20T12:43:51;100441.09;;;35.40;39.10
49759;BME280;70329;45.524;10.194;2023-08-20T12:46:17;100436.38;;;35.34;39.79
49759;BME280;70329;45.524;10.194;2023-08-20T12:48:42;100436.38;;;35.53;39.90
49759;BME280;70329;45.524;10.194;2023-08-20T12:51:08;100435.41;;;35.40;39.89
49759;BME280;70329;45.524;10.194;2023-08-20T12:53:37;100427.88;;;35.11;40.67
49759;BME280;70329;45.524;10.194;2023-08-20T12:56:03;100427.81;;;34.91;39.99
49759;BME280;70329;45.524;10.194;2023-08-20T12:58:28;100424.69;;;35.28;40.61